Tukiboshimaru — JI3695 — position and weather

sailwx.info

Track history (hours):
 
Tides and Currents Weather Stations Pressure Air Temp Water Temp Dewpoint Dewpoint Depression Visibility Wind Speed Wind Dir Waves Ship Positions

Tukiboshimaru

Last reported at 2017-Oct-20 05:24 UTC. Time now 2017-Oct-20 06:55 UTC.
Position N 34°36' E 135°23'.

Length 84 m.

Type: Ship. MMSI: 431301596.

Date/timePositionNaut miles runAvg speedWind from/ knotsBaromVisibWave heightAir tempDewpointWater temp
2017-Oct-20 05:24N 34°36' E 135°23'0 0.0
2017-Oct-19 20:27N 34°36' E 135°23'511.5
2017-Oct-19 20:00N 34°36' E 135°17'611.3
2017-Oct-19 19:30N 34°35' E 135°10'4 0.1
2017-Oct-18 08:36N 34°36' E 135°06'212.7
2017-Oct-18 08:25N 34°36' E 135°09'512.5
2017-Oct-18 07:59N 34°36' E 135°15'612.4
2017-Oct-18 07:30N 34°36' E 135°23'0 0.0
2017-Oct-17 23:42N 34°36' E 135°23'311.1
2017-Oct-17 23:25N 34°36' E 135°19'510.9
2017-Oct-17 23:00N 34°35' E 135°14'611.0
2017-Oct-17 22:29N 34°35' E 135°07'2 0.1
2017-Oct-16 09:23N 34°36' E 135°09'512.6
2017-Oct-16 09:00N 34°36' E 135°15'612.4
2017-Oct-16 08:30N 34°36' E 135°22'2 0.3
2017-Oct-16 00:48N 34°36' E 135°25'310.1
2017-Oct-16 00:30N 34°36' E 135°21'610.7
2017-Oct-15 23:58N 34°35' E 135°15'511.2
2017-Oct-15 23:29N 34°35' E 135°08'1 0.0
2017-Oct-14 07:28N 34°36' E 135°08'511.3
2017-Oct-14 07:00N 34°36' E 135°14'611.3
2017-Oct-14 06:31N 34°37' E 135°21'2 0.3
2017-Oct-13 22:28N 34°36' E 135°23'611.3
2017-Oct-13 21:57N 34°35' E 135°17'511.3
2017-Oct-13 21:30N 34°35' E 135°10'2 0.0
2017-Oct-12 08:31N 34°36' E 135°09'112.8
2017-Oct-12 08:28N 34°36' E 135°10'612.7
2017-Oct-12 08:00N 34°36' E 135°17'6 0.6
2017-Oct-11 23:09N 34°36' E 135°24'1 8.4
2017-Oct-11 22:59N 34°36' E 135°22'510.3
2017-Oct-11 22:30N 34°35' E 135°16'611.3
2017-Oct-11 22:00N 34°35' E 135°09'  
Track history (hours):
 
Tides and Currents Weather Stations Pressure Air Temp Water Temp Dewpoint Dewpoint Depression Visibility Wind Speed Wind Dir Waves Ship Positions

Tukiboshimaru

Last reported at 2017-Oct-20 05:24 UTC. Time now 2017-Oct-20 06:55 UTC.
Position N 34°36' E 135°23'.

Length 84 m.

Type: Ship. MMSI: 431301596.

Date/timePositionNaut miles runAvg speedWind from/ knotsBaromVisibWave heightAir tempDewpointWater temp
2017-Oct-20 05:24N 34°36' E 135°23'0 0.0
2017-Oct-19 20:27N 34°36' E 135°23'511.5
2017-Oct-19 20:00N 34°36' E 135°17'611.3
2017-Oct-19 19:30N 34°35' E 135°10'4 0.1
2017-Oct-18 08:36N 34°36' E 135°06'212.7
2017-Oct-18 08:25N 34°36' E 135°09'512.5
2017-Oct-18 07:59N 34°36' E 135°15'612.4
2017-Oct-18 07:30N 34°36' E 135°23'0 0.0
2017-Oct-17 23:42N 34°36' E 135°23'311.1
2017-Oct-17 23:25N 34°36' E 135°19'510.9
2017-Oct-17 23:00N 34°35' E 135°14'611.0
2017-Oct-17 22:29N 34°35' E 135°07'2 0.1
2017-Oct-16 09:23N 34°36' E 135°09'512.6
2017-Oct-16 09:00N 34°36' E 135°15'612.4
2017-Oct-16 08:30N 34°36' E 135°22'2 0.3
2017-Oct-16 00:48N 34°36' E 135°25'310.1
2017-Oct-16 00:30N 34°36' E 135°21'610.7
2017-Oct-15 23:58N 34°35' E 135°15'511.2
2017-Oct-15 23:29N 34°35' E 135°08'1 0.0
2017-Oct-14 07:28N 34°36' E 135°08'511.3
2017-Oct-14 07:00N 34°36' E 135°14'611.3
2017-Oct-14 06:31N 34°37' E 135°21'2 0.3
2017-Oct-13 22:28N 34°36' E 135°23'611.3
2017-Oct-13 21:57N 34°35' E 135°17'511.3
2017-Oct-13 21:30N 34°35' E 135°10'2 0.0
2017-Oct-12 08:31N 34°36' E 135°09'112.8
2017-Oct-12 08:28N 34°36' E 135°10'612.7
2017-Oct-12 08:00N 34°36' E 135°17'6 0.6
2017-Oct-11 23:09N 34°36' E 135°24'1 8.4
2017-Oct-11 22:59N 34°36' E 135°22'510.3
2017-Oct-11 22:30N 34°35' E 135°16'611.3
2017-Oct-11 22:00N 34°35' E 135°09'  

Dump ship's entire track history